Time;durP1;ratioP1;P1;durP2;ratioP2;P2;SDS_P1;SDS_P2;PMS_P1;PMS_P2;Temp;Humidity;BMP_temperature;BMP_pressure;BME280_temperature;BME280_humidity;BME280_pressure;Samples;Min_cycle;Max_cycle;Signal;HPM_P1;HPM_P2
2021/06/22 05:17:51;;;;;;;11.08;2.40;;;;;;;30.93;41.06;101018.33;1747251;81;21160;-67
2021/06/22 05:24:19;;;;;;;15.20;2.95;;;;;;;32.82;38.87;101011.91;1764094;81;20311;-64
2021/06/22 05:26:52;;;;;;;10.68;2.90;;;;;;;34.49;36.25;101013.81;1747595;82;21298;-63
2021/06/22 05:29:25;;;;;;;;;;;;;;;35.58;34.61;101011.50;1766933;81;21442;-59
2021/06/22 05:32:00;;;;;;;12.33;2.60;;;;;;;36.49;32.43;101010.98;1764154;81;20282;-61
2021/06/22 05:34:34;;;;;;;16.90;2.83;;;;;;;37.22;31.50;101002.46;1748028;82;21243;-59
2021/06/22 05:37:08;;;;;;;11.65;2.40;;;;;;;37.89;30.54;101012.12;1764026;81;21288;-62
2021/06/22 05:39:42;;;;;;;14.03;2.67;;;;;;;38.41;28.77;101007.65;1747704;82;21346;-61
2021/06/22 05:42:16;;;;;;;16.57;2.80;;;;;;;38.81;26.07;101001.16;1763997;81;21181;-59
2021/06/22 05:44:52;;;;;;;16.37;2.62;;;;;;;39.02;25.62;101000.97;1747951;82;22049;-61
2021/06/22 05:47:25;;;;;;;21.35;2.85;;;;;;;39.30;24.93;100998.44;1764001;81;21193;-59
2021/06/22 05:49:59;;;;;;;11.73;2.72;;;;;;;39.54;24.65;100999.52;1747587;82;21291;-65
2021/06/22 05:52:32;;;;;;;16.40;2.85;;;;;;;39.64;24.74;100994.64;1763988;81;21255;-65
2021/06/22 05:55:16;;;;;;;19.82;2.95;;;;;;;39.82;24.39;100994.17;1747766;82;21306;-69
2021/06/22 05:57:40;;;;;;;16.27;2.83;;;;;;;40.13;24.20;100997.77;1761857;81;21486;-64
2021/06/22 06:00:15;;;;;;;26.97;3.62;;;;;;;40.43;23.73;100982.42;1747816;82;21503;-62
2021/06/22 06:02:49;;;;;;;17.48;3.08;;;;;;;40.71;21.89;100985.20;1764102;81;21661;-65
2021/06/22 06:05:22;;;;;;;16.93;2.70;;;;;;;40.81;22.00;100986.84;1747247;81;21665;-62
2021/06/22 06:12:07;;;;;;;14.00;3.08;;;;;;;40.90;21.31;100979.45;1747975;82;21144;-71
2021/06/22 06:14:41;;;;;;;16.37;2.67;;;;;;;41.15;21.62;100970.44;1723869;82;21208;-70
2021/06/22 06:17:16;;;;;;;16.67;3.27;;;;;;;41.43;20.71;100966.81;1739917;82;21363;-68
2021/06/22 06:19:53;;;;;;;17.85;2.83;;;;;;;41.73;20.38;100967.19;1707568;84;21663;-67
2021/06/22 06:22:26;;;;;;;24.27;3.27;;;;;;;41.90;19.85;100964.40;1723695;83;22028;-66
2021/06/22 06:25:02;;;;;;;15.35;3.00;;;;;;;42.03;18.97;100960.65;1737024;81;22014;-65
2021/06/22 06:27:50;;;;;;;17.55;3.17;;;;;;;42.14;18.77;100963.86;1694390;84;21307;-66
2021/06/22 06:30:26;;;;;;;27.05;3.75;;;;;;;42.19;18.41;100962.30;1707065;84;21289;-64
2021/06/22 06:32:58;;;;;;;17.80;2.77;;;;;;;42.22;18.72;100958.34;1706792;84;22108;-69
2021/06/22 06:35:32;;;;;;;19.40;2.47;;;;;;;42.29;18.01;100957.81;1706670;84;21335;-68
2021/06/22 06:38:09;;;;;;;13.62;2.20;;;;;;;42.60;18.22;100956.13;1703826;84;21375;-70
2021/06/22 06:40:50;;;;;;;15.32;2.70;;;;;;;42.82;17.76;100955.83;1706355;84;21399;-66
2021/06/22 06:43:23;;;;;;;32.85;3.65;;;;;;;42.81;18.19;100956.40;1730643;81;21286;-71
2021/06/22 06:45:56;;;;;;;22.30;2.92;;;;;;;43.02;17.73;100964.69;1753790;81;22201;-65
2021/06/22 06:48:30;;;;;;;14.00;2.72;;;;;;;43.18;16.92;100953.88;1754144;81;21326;-67
2021/06/22 06:51:03;;;;;;;16.70;3.42;;;;;;;43.25;16.73;100947.25;1753861;81;21465;-69
2021/06/22 06:53:38;;;;;;;19.92;2.50;;;;;;;43.33;17.23;100945.00;1754025;81;21275;-62
2021/06/22 07:00:22;;;;;;;11.05;2.10;;;;;;;43.67;16.71;100952.13;1754292;81;21442;-67
2021/06/22 07:02:55;;;;;;;14.07;2.58;;;;;;;43.79;15.42;100957.13;1752744;81;21200;-64
2021/06/22 07:05:30;;;;;;;8.85;2.08;;;;;;;43.82;16.06;100944.05;1752911;81;21346;-62
2021/06/22 07:08:04;;;;;;;12.78;2.17;;;;;;;43.88;16.00;100952.31;1754009;81;21303;-63
2021/06/22 07:10:38;;;;;;;10.08;2.10;;;;;;;43.82;15.71;100966.68;1739180;81;21326;-65
2021/06/22 07:17:07;;;;;;;14.00;1.87;;;;;;;43.38;16.21;100962.14;1721539;82;21197;-62
2021/06/22 07:19:40;;;;;;;11.12;2.02;;;;;;;43.20;15.24;100964.80;1723151;83;21499;-61
2021/06/22 07:22:13;;;;;;;11.20;1.75;;;;;;;42.94;15.11;100956.50;1722312;83;21332;-58
2021/06/22 07:24:47;;;;;;;14.30;2.30;;;;;;;42.53;15.57;100955.29;1719531;83;21367;-64
2021/06/22 07:27:20;;;;;;;13.78;1.87;;;;;;;42.11;16.00;100961.20;1701941;83;21883;-61
2021/06/22 07:29:54;;;;;;;11.12;2.10;;;;;;;41.80;15.60;100960.62;1700266;84;21185;-61
2021/06/22 07:32:27;;;;;;;9.00;1.98;;;;;;;41.48;16.08;100959.22;1699636;84;21372;-59
2021/06/22 07:35:02;;;;;;;6.45;1.52;;;;;;;41.27;16.03;100962.39;1699611;84;21332;-60
2021/06/22 07:37:35;;;;;;;8.93;1.60;;;;;;;41.04;16.44;100960.88;1699775;84;21241;-57
2021/06/22 07:40:09;;;;;;;10.13;1.42;;;;;;;41.04;16.59;100966.38;1700496;84;21269;-59
2021/06/22 07:42:45;;;;;;;8.33;2.27;;;;;;;41.19;16.26;100953.54;1699762;84;21359;-61
2021/06/22 07:45:21;;;;;;;8.20;1.37;;;;;;;41.29;16.17;100952.44;1699853;84;21202;-60
2021/06/22 07:47:55;;;;;;;9.25;1.70;;;;;;;41.50;15.83;100951.45;1699680;84;21238;-61
2021/06/22 07:50:28;;;;;;;9.20;1.95;;;;;;;41.72;14.85;100955.97;1700579;84;21579;-57
2021/06/22 07:53:02;;;;;;;16.97;2.02;;;;;;;41.51;14.83;100946.77;1697509;84;21316;-59
2021/06/22 07:55:38;;;;;;;10.03;1.45;;;;;;;41.30;15.09;100943.05;1694292;84;21323;-58
2021/06/22 07:58:11;;;;;;;9.88;1.57;;;;;;;41.31;15.25;100950.17;1730125;82;21196;-58
2021/06/22 08:00:46;;;;;;;9.70;1.45;;;;;;;41.37;14.89;100944.73;1695441;84;21178;-59
2021/06/22 08:03:21;;;;;;;8.88;1.70;;;;;;;41.44;14.83;100948.61;1730099;82;21215;-60
2021/06/22 08:05:54;;;;;;;5.65;1.30;;;;;;;41.36;14.51;100941.77;1694515;84;21335;-59
2021/06/22 08:08:27;;;;;;;8.65;1.47;;;;;;;41.41;14.79;100948.47;1700463;84;21212;-60
2021/06/22 08:11:01;;;;;;;7.35;1.40;;;;;;;41.54;15.25;100951.03;1681143;82;21262;-60
2021/06/22 08:13:37;;;;;;;6.62;1.70;;;;;;;41.60;14.80;100950.30;1734688;82;22213;-59
2021/06/22 08:16:11;;;;;;;9.88;1.50;;;;;;;41.55;15.03;100938.91;1746724;79;21271;-58
2021/06/22 08:18:45;;;;;;;8.55;1.30;;;;;;;41.57;14.59;100940.77;1736291;80;21402;-60
2021/06/22 08:21:18;;;;;;;8.03;1.40;;;;;;;41.41;14.91;100944.34;1694242;84;21371;-59
2021/06/22 08:23:51;;;;;;;9.15;1.40;;;;;;;41.29;14.91;100938.70;1681095;85;21681;-60
2021/06/22 08:26:24;;;;;;;8.10;1.60;;;;;;;41.14;14.91;100936.41;1693158;84;21478;-61
2021/06/22 08:28:57;;;;;;;11.57;1.70;;;;;;;41.18;14.97;100952.50;1706635;82;21484;-60
2021/06/22 08:31:30;;;;;;;4.62;1.37;;;;;;;41.13;15.16;100934.21;1701648;83;21448;-59
2021/06/22 08:34:03;;;;;;;6.87;1.32;;;;;;;41.02;15.20;100951.34;1699596;84;21194;-59
2021/06/22 08:36:37;;;;;;;6.83;1.22;;;;;;;40.78;15.15;100942.98;1699482;84;21229;-62
2021/06/22 08:39:10;;;;;;;11.63;1.60;;;;;;;40.52;15.31;100940.75;1691194;83;21305;-59
2021/06/22 08:41:43;;;;;;;13.83;2.00;;;;;;;40.43;15.86;100937.70;1752983;79;22168;-59
2021/06/22 08:44:19;;;;;;;10.60;1.85;;;;;;;40.46;16.87;100935.73;1731395;81;21272;-60
2021/06/22 08:51:08;;;;;;;7.25;1.22;;;;;;;40.91;15.49;100936.55;1767874;81;21438;-60
2021/06/22 08:53:47;;;;;;;12.33;1.42;;;;;;;40.92;15.69;100920.33;1750936;79;21443;-60
2021/06/22 08:56:20;;;;;;;5.47;1.55;;;;;;;40.94;15.68;100922.73;1730443;81;21224;-59
2021/06/22 08:58:53;;;;;;;6.30;1.37;;;;;;;40.79;15.56;100921.83;1767099;80;22188;-62
2021/06/22 09:01:28;;;;;;;5.35;1.30;;;;;;;40.59;15.42;100913.63;1767316;81;21178;-61
2021/06/22 09:04:02;;;;;;;5.20;1.25;;;;;;;40.30;15.06;100918.30;1766961;81;21312;-60
2021/06/22 09:06:46;;;;;;;6.90;1.40;;;;;;;40.07;15.37;100915.39;1766948;81;21319;-60
2021/06/22 09:09:20;;;;;;;6.87;1.45;;;;;;;39.84;15.73;100915.74;1766703;81;22123;-59
2021/06/22 09:12:07;;;;;;;4.58;0.98;;;;;;;39.59;16.86;100905.69;1767500;81;21180;-60
2021/06/22 09:14:41;;;;;;;6.85;1.00;;;;;;;39.59;17.21;100908.98;1766327;81;21243;-60
2021/06/22 09:17:15;;;;;;;5.30;0.98;;;;;;;39.38;15.92;100911.41;1756139;81;21398;-59
2021/06/22 09:19:54;;;;;;;6.92;1.30;;;;;;;39.24;15.68;100920.80;1764374;80;21620;-61
2021/06/22 09:22:33;;;;;;;6.55;1.00;;;;;;;38.94;16.32;100914.88;1765368;81;22191;-61
2021/06/22 09:25:10;;;;;;;4.37;0.88;;;;;;;38.72;15.68;100924.95;1752359;80;21321;-60
2021/06/22 09:27:54;;;;;;;10.82;1.77;;;;;;;38.43;16.21;100913.54;1757833;80;21391;-59
2021/06/22 09:31:00;;;;;;;6.20;1.10;;;;;;;38.07;16.06;100927.86;1769106;80;21292;-59
2021/06/22 09:33:43;;;;;;;4.85;1.07;;;;;;;37.76;16.35;100932.27;1749782;80;21247;-62
2021/06/22 09:36:28;;;;;;;8.95;1.47;;;;;;;37.53;17.23;100918.98;1741141;80;21219;-60
2021/06/22 09:39:07;;;;;;;13.65;1.50;;;;;;;37.48;17.81;100916.88;1781055;80;21223;-61
2021/06/22 09:41:43;;;;;;;6.00;1.45;;;;;;;37.40;18.13;100925.77;1782212;80;21295;-59
2021/06/22 09:44:21;;;;;;;8.60;0.98;;;;;;;37.19;18.00;100938.09;1781899;80;22109;-59
2021/06/22 09:46:59;;;;;;;2.17;0.90;;;;;;;36.90;18.57;100922.61;1771473;79;21558;-59
2021/06/22 09:49:35;;;;;;;4.90;1.60;;;;;;;36.71;19.34;100911.45;1728665;83;21263;-60
2021/06/22 09:52:13;;;;;;;10.80;1.47;;;;;;;36.58;19.54;100909.42;1759093;79;21227;-60
2021/06/22 09:54:52;;;;;;;7.15;1.42;;;;;;;36.45;19.11;100907.66;1749591;81;21446;-59
2021/06/22 09:57:30;;;;;;;;;;;;;;;36.27;19.01;100908.95;1739222;79;21315;-59
2021/06/22 10:00:12;;;;;;;19.50;1.65;;;;;;;36.14;19.94;100917.81;1753952;81;20299;-61
2021/06/22 10:06:59;;;;;;;10.13;1.22;;;;;;;36.01;20.39;100899.44;1766704;81;21129;-61
2021/06/22 10:09:38;;;;;;;7.70;1.10;;;;;;;35.95;20.67;100893.73;1766088;81;21650;-60
2021/06/22 10:12:22;;;;;;;6.15;1.40;;;;;;;35.99;20.45;100908.45;1805382;79;21193;-59
2021/06/22 10:15:07;;;;;;;5.67;1.07;;;;;;;35.95;20.41;100897.82;1800041;79;21698;-61
2021/06/22 10:17:41;;;;;;;5.50;1.05;;;;;;;35.85;21.13;100891.37;1793545;80;21315;-59
2021/06/22 10:20:14;;;;;;;2.90;1.02;;;;;;;35.83;21.22;100891.41;1764611;79;21687;-58
2021/06/22 10:22:51;;;;;;;7.83;1.02;;;;;;;35.82;21.82;100894.70;1746923;81;21304;-61
2021/06/22 10:25:29;;;;;;;18.57;1.75;;;;;;;35.80;21.50;100890.64;1744354;81;21980;-58
2021/06/22 10:28:02;;;;;;;5.20;1.00;;;;;;;35.69;21.62;100885.83;1745576;82;21316;-59
2021/06/22 10:30:35;;;;;;;7.67;1.05;;;;;;;35.67;21.61;100886.66;1745680;82;21507;-58
2021/06/22 10:33:09;;;;;;;14.55;1.60;;;;;;;35.64;21.53;100898.67;1746290;82;21189;-59
2021/06/22 10:35:46;;;;;;;6.10;1.00;;;;;;;35.51;22.67;100881.64;1745400;82;21178;-58
2021/06/22 10:38:21;;;;;;;4.85;0.93;;;;;;;35.51;22.59;100889.81;1745218;82;21237;-60
2021/06/22 10:41:03;;;;;;;7.55;1.02;;;;;;;35.46;22.75;100880.30;1745622;82;22108;-59
2021/06/22 10:43:39;;;;;;;;;;;;;;;35.43;21.49;100909.45;1748555;82;21150;-59
2021/06/22 10:46:21;;;;;;;4.05;1.10;;;;;;;35.40;21.79;100871.89;1745268;81;20373;-60
2021/06/22 10:49:19;;;;;;;6.80;1.10;;;;;;;35.35;22.14;100886.93;1745038;82;21186;-59
2021/06/22 10:51:52;;;;;;;6.85;0.93;;;;;;;35.36;22.58;100873.56;1744321;82;21182;-58
2021/06/22 10:54:55;;;;;;;4.83;1.10;;;;;;;35.34;22.78;100870.32;1745967;82;21357;-58
2021/06/22 10:58:08;;;;;;;6.92;0.93;;;;;;;35.36;23.65;100868.94;1746444;81;21249;-58
2021/06/22 11:00:50;;;;;;;6.80;1.42;;;;;;;35.37;23.65;100863.77;1745433;82;21194;-59
2021/06/22 11:03:24;;;;;;;;;;;;;;;35.42;23.37;100858.25;1748677;82;21320;-58
2021/06/22 11:06:18;;;;;;;3.72;1.00;;;;;;;35.43;23.09;100850.91;1745867;81;20391;-59
2021/06/22 11:08:52;;;;;;;2.75;0.90;;;;;;;35.40;22.39;100869.98;1744546;81;21237;-61
2021/06/22 11:11:25;;;;;;;;;;;;;;;35.33;22.73;100859.16;1748135;82;21324;-60
2021/06/22 11:13:59;;;;;;;4.05;1.02;;;;;;;35.26;22.86;100858.13;1746309;81;20313;-61
2021/06/22 11:16:33;;;;;;;2.22;0.70;;;;;;;35.26;23.29;100854.04;1745446;81;21245;-59
2021/06/22 11:19:09;;;;;;;7.50;1.20;;;;;;;35.30;23.74;100856.45;1745108;82;21333;-60
2021/06/22 11:21:51;;;;;;;2.40;0.90;;;;;;;35.32;23.06;100850.20;1780082;80;21383;-59
2021/06/22 11:24:31;;;;;;;3.83;0.88;;;;;;;35.32;22.57;100843.94;1794299;80;21192;-60
2021/06/22 11:27:06;;;;;;;19.17;2.05;;;;;;;35.28;22.58;100843.67;1792762;80;21378;-60
2021/06/22 11:29:43;;;;;;;4.37;1.02;;;;;;;35.27;22.40;100839.89;1792807;79;21989;-59
2021/06/22 11:32:32;;;;;;;4.90;1.00;;;;;;;35.28;22.97;100839.59;1792913;79;21200;-60
2021/06/22 11:35:08;;;;;;;4.35;0.85;;;;;;;35.30;22.47;100837.97;1793684;80;21287;-61
2021/06/22 11:37:41;;;;;;;6.67;0.90;;;;;;;35.31;23.04;100830.86;1754002;81;21185;-61
2021/06/22 11:40:21;;;;;;;4.22;1.05;;;;;;;35.32;21.52;100835.77;1766959;80;21212;-60
2021/06/22 11:43:07;;;;;;;5.50;1.02;;;;;;;35.25;21.39;100840.73;1752918;81;21194;-59
2021/06/22 11:45:40;;;;;;;2.47;0.90;;;;;;;35.18;22.04;100827.45;1722659;80;21187;-61
2021/06/22 11:48:17;;;;;;;2.90;0.82;;;;;;;35.16;22.62;100830.44;1765499;81;21618;-60
2021/06/22 11:50:51;;;;;;;11.83;1.75;;;;;;;35.18;22.93;100839.70;1767111;81;21300;-61
2021/06/22 11:53:25;;;;;;;;;;;;;;;35.17;22.25;100821.73;1770231;81;21352;-60
2021/06/22 11:55:57;;;;;;;;;;;;;;;35.13;22.55;100831.00;1767363;81;20217;-60
2021/06/22 11:58:29;;;;;;;4.87;0.70;;;;;;;35.13;21.87;100819.33;1767079;81;20349;-60
2021/06/22 12:01:02;;;;;;;7.78;0.95;;;;;;;35.11;21.98;100814.69;1766600;81;21307;-59
2021/06/22 12:03:36;;;;;;;7.50;1.10;;;;;;;35.10;21.80;100816.63;1708041;81;21280;-59
2021/06/22 12:06:10;;;;;;;2.92;1.00;;;;;;;35.09;21.69;100821.79;1766645;81;21978;-61
2021/06/22 12:08:43;;;;;;;3.77;0.85;;;;;;;35.06;21.42;100812.82;1767618;81;21564;-60
2021/06/22 12:11:32;;;;;;;6.87;1.30;;;;;;;35.03;21.47;100809.87;1767519;81;21181;-62
2021/06/22 12:14:06;;;;;;;7.40;1.42;;;;;;;34.99;22.07;100804.14;1767030;81;21389;-60
2021/06/22 12:16:38;;;;;;;;;;;;;;;34.99;23.13;100809.59;1768813;80;21217;-60
2021/06/22 12:19:18;;;;;;;4.97;1.12;;;;;;;34.99;22.18;100801.42;1765877;81;20339;-61
2021/06/22 12:21:55;;;;;;;7.40;1.02;;;;;;;35.02;22.55;100806.84;1765259;81;21508;-60
2021/06/22 12:24:28;;;;;;;4.83;1.15;;;;;;;35.08;22.04;100800.31;1766678;80;21177;-62
2021/06/22 12:27:01;;;;;;;4.15;0.80;;;;;;;35.08;21.68;100798.95;1765452;81;21491;-61
2021/06/22 12:29:34;;;;;;;7.15;0.80;;;;;;;35.06;21.74;100791.05;1754116;81;21424;-61
2021/06/22 12:32:10;;;;;;;6.20;0.90;;;;;;;35.04;21.31;100796.52;1766528;81;22138;-61
2021/06/22 12:34:43;;;;;;;7.58;1.10;;;;;;;35.00;21.50;100796.26;1767682;80;21955;-65
2021/06/22 12:37:22;;;;;;;8.08;1.10;;;;;;;34.98;21.37;100791.66;1767397;80;22073;-62
2021/06/22 12:39:56;;;;;;;4.25;1.17;;;;;;;34.97;21.71;100795.45;1766471;81;22130;-61
2021/06/22 12:42:31;;;;;;;2.00;0.70;;;;;;;34.97;21.55;100800.08;1767468;81;22166;-62
2021/06/22 12:45:14;;;;;;;2.70;0.90;;;;;;;34.96;21.67;100793.85;1766908;80;21186;-62
2021/06/22 12:47:55;;;;;;;1.85;0.60;;;;;;;34.96;21.73;100787.59;1765115;81;21197;-59
2021/06/22 12:50:33;;;;;;;1.50;0.57;;;;;;;34.97;21.53;100788.66;1764618;81;21189;-62
2021/06/22 12:53:11;;;;;;;5.95;0.80;;;;;;;34.98;21.78;100793.55;1764861;81;21228;-60
2021/06/22 12:55:49;;;;;;;4.95;0.80;;;;;;;34.99;22.09;100787.81;1766472;80;22113;-60
2021/06/22 12:58:29;;;;;;;6.90;0.93;;;;;;;34.99;21.99;100787.03;1765851;81;21304;-60
2021/06/22 13:00:58;;;;;;;3.67;0.80;;;;;;;34.98;22.30;100788.11;1766686;81;21535;-59
2021/06/22 13:07:45;;;;;;;4.85;0.72;;;;;;;35.00;21.76;100778.56;1766418;79;21355;-60
2021/06/22 13:10:19;;;;;;;3.83;0.82;;;;;;;35.02;22.09;100782.35;1765108;80;21312;-59
2021/06/22 13:12:53;;;;;;;2.65;0.65;;;;;;;35.04;22.27;100772.84;1766329;81;22146;-63
2021/06/22 13:15:33;;;;;;;0.98;0.62;;;;;;;35.05;21.81;100770.94;1755609;80;21529;-60
2021/06/22 13:18:07;;;;;;;3.65;0.70;;;;;;;35.05;22.82;100770.94;1767680;81;21367;-60
2021/06/22 13:20:44;;;;;;;2.75;0.90;;;;;;;35.06;22.47;100772.00;1766698;81;21213;-60
2021/06/22 13:23:17;;;;;;;4.40;0.78;;;;;;;35.04;22.75;100772.84;1767300;80;21319;-59
2021/06/22 13:25:56;;;;;;;7.08;1.10;;;;;;;35.03;22.94;100769.88;1766453;81;21205;-60
2021/06/22 13:28:29;;;;;;;5.60;1.00;;;;;;;35.03;23.57;100762.25;1766065;81;21197;-60
2021/06/22 13:31:15;;;;;;;;;;;;;;;35.01;23.09;100765.21;1767951;81;21304;-59
2021/06/22 13:33:48;;;;;;;5.22;1.17;;;;;;;35.00;23.13;100766.87;1765814;80;20324;-61
2021/06/22 13:36:21;;;;;;;9.30;1.15;;;;;;;34.98;22.75;100769.88;1767657;81;21338;-59
2021/06/22 13:39:07;;;;;;;6.90;1.20;;;;;;;34.98;23.21;100758.18;1766743;80;22157;-60
2021/06/22 13:46:01;;;;;;;1.92;1.02;;;;;;;34.96;23.07;100753.03;1767734;80;21236;-61
